Time;durP1;ratioP1;P1;durP2;ratioP2;P2;SDS_P1;SDS_P2;PMS_P1;PMS_P2;Temp;Humidity;BMP_temperature;BMP_pressure;BME280_temperature;BME280_humidity;BME280_pressure;Samples;Min_cycle;Max_cycle;Signal;HPM_P1;HPM_P2
2023/03/28 00:01:31;;;;;;;41.20;38.60;;;11.50;99.90;;;;;;5288856;28;20038;-66
2023/03/28 00:04:03;;;;;;;46.33;43.00;;;11.60;99.90;;;;;;5288555;28;20035;-66
2023/03/28 00:06:34;;;;;;;46.53;43.17;;;11.50;99.90;;;;;;5288710;28;20035;-63
2023/03/28 00:09:05;;;;;;;42.58;40.05;;;11.50;99.90;;;;;;5288744;28;20015;-64
2023/03/28 00:11:36;;;;;;;40.53;37.90;;;11.30;99.90;;;;;;5288734;28;20027;-66
2023/03/28 00:14:07;;;;;;;41.17;38.65;;;11.60;99.90;;;;;;5289113;28;20024;-65
2023/03/28 00:16:39;;;;;;;40.92;38.47;;;11.60;99.90;;;;;;5291339;28;20045;-63
2023/03/28 00:19:17;;;;;;;40.40;37.63;;;11.60;99.90;;;;;;5292827;28;20030;-66
2023/03/28 00:21:50;;;;;;;46.85;43.70;;;11.40;99.90;;;;;;5292731;28;20068;-66
2023/03/28 00:24:20;;;;;;;52.15;48.03;;;11.30;99.90;;;;;;5292444;28;20042;-66
2023/03/28 00:26:53;;;;;;;41.47;38.97;;;11.50;99.90;;;;;;5292709;28;20434;-66
2023/03/28 00:29:24;;;;;;;42.45;39.83;;;11.40;99.90;;;;;;5292548;28;20036;-66
2023/03/28 00:31:55;;;;;;;42.22;39.47;;;11.30;99.90;;;;;;5292247;28;20092;-66
2023/03/28 00:34:26;;;;;;;41.88;39.05;;;11.00;99.90;;;;;;5292524;28;20039;-66
2023/03/28 00:36:57;;;;;;;50.47;46.53;;;11.20;99.90;;;;;;5292517;28;20537;-66
2023/03/28 00:39:30;;;;;;;44.85;42.05;;;11.20;99.90;;;;;;5292383;28;20028;-66
2023/03/28 00:42:02;;;;;;;41.00;38.30;;;11.10;99.90;;;;;;5292261;28;20452;-65
2023/03/28 00:44:59;;;;;;;42.22;39.75;;;10.90;99.90;;;;;;5292358;28;20032;-66
2023/03/28 00:48:03;;;;;;;37.03;34.80;;;10.70;99.90;;;;;;5287792;28;20084;-63
2023/03/28 00:50:38;;;;;;;34.08;31.77;;;10.70;99.90;;;;;;5292187;28;20031;-66
2023/03/28 00:53:19;;;;;;;34.58;32.33;;;10.70;99.90;;;;;;5292158;28;20035;-66
2023/03/28 00:55:57;;;;;;;35.08;32.67;;;11.30;99.90;;;;;;5292010;28;20040;-64
2023/03/28 00:58:31;;;;;;;38.72;36.33;;;11.40;99.90;;;;;;5292082;28;20041;-65
2023/03/28 01:01:02;;;;;;;40.22;37.60;;;11.40;99.90;;;;;;5291905;28;20019;-66
2023/03/28 01:03:34;;;;;;;42.83;39.83;;;11.20;99.90;;;;;;5291801;28;20421;-66
2023/03/28 01:06:06;;;;;;;37.58;35.08;;;11.30;99.90;;;;;;5291843;28;20027;-65
2023/03/28 01:08:42;;;;;;;41.08;38.47;;;11.40;99.90;;;;;;5291783;28;20031;-65
2023/03/28 01:11:14;;;;;;;41.83;39.13;;;11.50;99.90;;;;;;5291769;28;20015;-66
2023/03/28 01:13:49;;;;;;;43.20;40.42;;;11.50;99.90;;;;;;5291653;28;20031;-66
2023/03/28 01:16:21;;;;;;;45.70;42.55;;;11.50;99.90;;;;;;5291520;28;20018;-63
2023/03/28 01:18:52;;;;;;;50.67;46.90;;;11.60;99.90;;;;;;5291528;28;20471;-65
2023/03/28 01:21:47;;;;;;;46.17;42.90;;;11.30;99.90;;;;;;5291399;28;20114;-66
2023/03/28 01:24:38;;;;;;;45.85;42.97;;;11.20;99.90;;;;;;5291286;28;20089;-66
2023/03/28 01:27:23;;;;;;;41.33;38.72;;;11.40;99.90;;;;;;5290816;28;20012;-66
2023/03/28 01:30:15;;;;;;;43.47;40.58;;;11.50;99.90;;;;;;5291544;28;20395;-63
2023/03/28 01:33:01;;;;;;;41.95;39.28;;;11.40;99.90;;;;;;5291399;28;20064;-66
2023/03/28 01:35:55;;;;;;;47.10;44.00;;;11.40;99.90;;;;;;5291606;28;20506;-63
2023/03/28 01:38:44;;;;;;;39.78;37.10;;;11.30;99.90;;;;;;5291384;28;20019;-65
2023/03/28 01:41:38;;;;;;;43.92;40.47;;;11.30;99.90;;;;;;5291158;28;20034;-66
2023/03/28 01:44:11;;;;;;;46.63;43.38;;;11.30;99.90;;;;;;5291136;28;20047;-66
2023/03/28 01:46:51;;;;;;;46.65;43.55;;;11.50;99.90;;;;;;5291079;28;20012;-66
2023/03/28 01:49:37;;;;;;;49.80;46.53;;;11.50;99.90;;;;;;5291115;28;20141;-66
2023/03/28 01:52:18;;;;;;;43.05;40.15;;;11.20;99.90;;;;;;5290961;28;20746;-66
2023/03/28 01:55:06;;;;;;;43.40;40.28;;;10.90;99.90;;;;;;5290886;28;20041;-65
2023/03/28 01:57:44;;;;;;;42.65;39.50;;;11.10;99.90;;;;;;5291067;28;20024;-66
2023/03/28 02:00:30;;;;;;;42.08;38.90;;;11.20;99.90;;;;;;5290826;28;20027;-65
2023/03/28 02:03:11;;;;;;;40.25;37.42;;;11.40;99.90;;;;;;5290678;28;20126;-66
2023/03/28 02:05:45;;;;;;;41.67;38.70;;;11.30;99.90;;;;;;5290571;28;20032;-66
2023/03/28 02:08:17;;;;;;;46.28;42.72;;;11.10;99.90;;;;;;5290553;28;20038;-63
2023/03/28 02:10:50;;;;;;;42.45;39.28;;;11.20;99.90;;;;;;5290584;28;20112;-66
2023/03/28 02:13:26;;;;;;;44.33;41.08;;;11.20;99.90;;;;;;5290471;28;20050;-66
2023/03/28 02:16:00;;;;;;;40.60;37.22;;;11.00;99.90;;;;;;5290416;28;20042;-65
2023/03/28 02:18:35;;;;;;;38.17;35.38;;;11.00;99.90;;;;;;5290431;28;20023;-65
2023/03/28 02:21:14;;;;;;;40.00;37.15;;;11.00;99.90;;;;;;5290451;28;20043;-65
2023/03/28 02:23:49;;;;;;;41.97;39.00;;;11.20;99.90;;;;;;5290177;28;20088;-65
2023/03/28 02:26:22;;;;;;;37.65;34.95;;;11.30;99.90;;;;;;5290206;28;20028;-66
2023/03/28 02:28:56;;;;;;;38.13;35.42;;;11.30;99.90;;;;;;5290149;28;20016;-64
2023/03/28 02:31:27;;;;;;;37.03;34.47;;;11.20;99.90;;;;;;5289894;28;20106;-65
2023/03/28 02:34:00;;;;;;;38.13;35.40;;;11.20;99.90;;;;;;5272033;28;20512;-66
2023/03/28 02:36:46;;;;;;;42.95;39.53;;;11.30;99.90;;;;;;5289915;28;20036;-65
2023/03/28 02:39:34;;;;;;;37.65;34.90;;;11.20;99.90;;;;;;5288885;28;20027;-66
2023/03/28 02:42:34;;;;;;;36.63;33.90;;;11.20;99.90;;;;;;5289758;28;20039;-66
2023/03/28 02:45:26;;;;;;;42.30;39.30;;;11.30;99.90;;;;;;5276775;28;20071;-66
2023/03/28 02:48:06;;;;;;;41.63;38.35;;;11.40;99.90;;;;;;5282439;28;20019;-64
2023/03/28 02:51:14;;;;;;;40.78;37.60;;;11.20;99.90;;;;;;5288711;28;20072;-65
2023/03/28 02:53:50;;;;;;;35.58;33.08;;;11.10;99.90;;;;;;5286163;28;20022;-66
2023/03/28 02:56:49;;;;;;;38.00;35.20;;;11.10;99.90;;;;;;5288443;28;20131;-65
2023/03/28 02:59:47;;;;;;;39.30;36.25;;;10.80;99.90;;;;;;5288206;28;20046;-64
2023/03/28 03:02:20;;;;;;;36.63;33.88;;;11.10;99.90;;;;;;5278827;28;20418;-67
2023/03/28 03:04:56;;;;;;;37.45;34.70;;;11.30;99.90;;;;;;5288400;28;20036;-65
2023/03/28 03:07:27;;;;;;;37.70;35.03;;;11.30;99.90;;;;;;5286568;28;20019;-64
2023/03/28 03:09:59;;;;;;;37.72;35.17;;;11.30;99.90;;;;;;5288281;28;20487;-63
2023/03/28 03:12:30;;;;;;;37.47;34.97;;;11.20;99.90;;;;;;5288269;28;20107;-63
2023/03/28 03:15:02;;;;;;;35.63;33.13;;;11.10;99.90;;;;;;5288244;28;20496;-64
2023/03/28 03:17:34;;;;;;;33.03;30.70;;;11.20;99.90;;;;;;5288213;28;20559;-64
2023/03/28 03:20:06;;;;;;;38.05;35.45;;;11.20;99.90;;;;;;5288287;28;20034;-66
2023/03/28 03:22:37;;;;;;;37.30;34.35;;;11.10;99.90;;;;;;5288074;28;20470;-66
2023/03/28 03:25:09;;;;;;;36.30;33.50;;;10.90;99.90;;;;;;5288153;28;20414;-66
2023/03/28 03:27:40;;;;;;;33.22;30.77;;;10.80;99.90;;;;;;5288063;28;20023;-67
2023/03/28 03:30:11;;;;;;;32.15;29.85;;;10.80;99.90;;;;;;5288076;28;20032;-65
2023/03/28 03:32:42;;;;;;;33.83;31.20;;;10.90;99.90;;;;;;5284965;28;20048;-64
2023/03/28 03:35:14;;;;;;;34.45;31.80;;;11.00;99.90;;;;;;5288024;28;20076;-63
2023/03/28 03:37:45;;;;;;;33.63;31.08;;;10.90;99.90;;;;;;5287716;28;20043;-66
2023/03/28 03:40:17;;;;;;;36.47;33.60;;;11.10;99.90;;;;;;5287690;28;20016;-64
2023/03/28 03:42:48;;;;;;;34.42;31.83;;;10.90;99.90;;;;;;5287571;28;20035;-65
2023/03/28 03:45:19;;;;;;;36.53;33.78;;;10.90;99.90;;;;;;5269319;28;20030;-65
2023/03/28 03:47:50;;;;;;;40.17;37.10;;;11.00;99.90;;;;;;5288745;28;20363;-63
2023/03/28 03:50:20;;;;;;;40.80;37.55;;;10.90;99.90;;;;;;5289181;28;20024;-66
2023/03/28 03:52:51;;;;;;;36.30;33.13;;;10.90;99.90;;;;;;5293415;28;20031;-65
2023/03/28 03:55:22;;;;;;;35.25;32.45;;;11.00;99.90;;;;;;5293488;28;20015;-65
2023/03/28 03:57:53;;;;;;;40.63;37.33;;;10.90;99.90;;;;;;5293111;28;20046;-65
2023/03/28 04:00:24;;;;;;;42.30;38.90;;;11.10;99.90;;;;;;5293265;28;20067;-64
2023/03/28 04:02:55;;;;;;;40.00;36.65;;;11.10;99.90;;;;;;5293439;28;20028;-66
2023/03/28 04:05:26;;;;;;;36.55;33.85;;;10.80;99.90;;;;;;5293358;28;20034;-63
2023/03/28 04:07:59;;;;;;;35.92;33.00;;;10.80;99.90;;;;;;5292891;28;20028;-65
2023/03/28 04:10:30;;;;;;;38.42;35.47;;;10.80;99.90;;;;;;5293191;28;20020;-63
2023/03/28 04:13:01;;;;;;;36.45;33.35;;;11.00;99.90;;;;;;5292804;28;20050;-66
2023/03/28 04:15:31;;;;;;;39.30;36.40;;;10.90;99.90;;;;;;5292794;28;20031;-66
2023/03/28 04:18:03;;;;;;;34.42;31.67;;;10.80;99.90;;;;;;5292767;28;20031;-66
2023/03/28 04:20:34;;;;;;;36.83;33.88;;;11.00;99.90;;;;;;5292890;28;20030;-66
2023/03/28 04:23:07;;;;;;;30.65;28.23;;;10.90;99.90;;;;;;5292521;28;20066;-63
2023/03/28 04:25:40;;;;;;;37.20;34.05;;;10.70;99.90;;;;;;5292752;28;20050;-66
2023/03/28 04:28:11;;;;;;;36.10;33.40;;;10.90;99.90;;;;;;5292596;28;20016;-66
2023/03/28 04:30:42;;;;;;;34.47;31.63;;;11.00;99.90;;;;;;5292378;28;20023;-66
2023/03/28 04:33:13;;;;;;;37.60;34.40;;;11.10;99.90;;;;;;5292619;28;20034;-66
2023/03/28 04:35:44;;;;;;;34.17;31.52;;;10.60;99.90;;;;;;5292622;28;20023;-66
2023/03/28 04:38:16;;;;;;;35.45;32.65;;;10.90;99.90;;;;;;5292311;28;20020;-63
2023/03/28 04:40:48;;;;;;;37.28;34.25;;;10.50;99.90;;;;;;5292339;28;20375;-66
2023/03/28 04:43:19;;;;;;;34.28;31.60;;;10.90;99.90;;;;;;5292267;28;20036;-65
2023/03/28 04:45:51;;;;;;;36.28;33.17;;;10.90;99.90;;;;;;5292234;28;20536;-66
2023/03/28 04:48:24;;;;;;;37.60;34.22;;;10.80;99.90;;;;;;5292271;28;20031;-66
2023/03/28 04:50:54;;;;;;;33.67;30.98;;;10.90;99.90;;;;;;5292152;28;20032;-63
2023/03/28 04:53:25;;;;;;;37.63;34.55;;;10.90;99.90;;;;;;5292078;28;20084;-63
2023/03/28 04:55:56;;;;;;;34.72;31.88;;;10.80;99.90;;;;;;5292011;28;20085;-66
2023/03/28 04:58:27;;;;;;;35.95;33.05;;;10.80;99.90;;;;;;5291972;28;20457;-66
2023/03/28 05:01:02;;;;;;;35.20;32.47;;;11.10;99.90;;;;;;5291943;28;20095;-65
2023/03/28 05:03:33;;;;;;;37.53;34.42;;;11.20;99.90;;;;;;5290654;28;20069;-66
2023/03/28 05:06:04;;;;;;;34.72;31.92;;;11.10;99.90;;;;;;5291778;28;20028;-64
2023/03/28 05:08:35;;;;;;;37.53;34.28;;;11.00;99.90;;;;;;5291861;28;20032;-63
2023/03/28 05:11:06;;;;;;;37.33;34.47;;;11.10;99.90;;;;;;5291627;28;20044;-65
2023/03/28 05:13:37;;;;;;;33.72;30.83;;;11.10;99.90;;;;;;5291755;28;20032;-66
2023/03/28 05:16:08;;;;;;;34.88;32.08;;;11.10;99.90;;;;;;5291885;28;20098;-66
2023/03/28 05:18:38;;;;;;;35.50;32.80;;;11.10;99.90;;;;;;5291806;28;20112;-66
2023/03/28 05:21:09;;;;;;;35.63;32.63;;;11.20;99.90;;;;;;5273338;28;20012;-66
2023/03/28 05:23:40;;;;;;;37.15;34.15;;;11.30;99.90;;;;;;5291594;28;20032;-66
2023/03/28 05:26:11;;;;;;;37.20;34.33;;;11.00;99.90;;;;;;5291528;28;20545;-66
2023/03/28 05:28:42;;;;;;;37.00;33.92;;;11.20;99.90;;;;;;5291563;28;20150;-64
2023/03/28 05:31:14;;;;;;;36.83;33.78;;;11.30;99.90;;;;;;5291188;28;20122;-66
2023/03/28 05:33:45;;;;;;;34.03;31.27;;;11.10;99.90;;;;;;5291415;28;20035;-66
2023/03/28 05:36:17;;;;;;;35.53;32.63;;;11.20;99.90;;;;;;5291299;28;20030;-63
2023/03/28 05:38:48;;;;;;;38.05;35.00;;;11.10;99.90;;;;;;5291295;28;20023;-66
2023/03/28 05:41:20;;;;;;;40.63;37.55;;;11.40;99.90;;;;;;5272102;28;20455;-66
2023/03/28 05:43:50;;;;;;;40.28;37.00;;;11.50;99.90;;;;;;5288350;28;20031;-65
2023/03/28 05:46:21;;;;;;;39.83;36.47;;;11.50;99.90;;;;;;5270088;28;20036;-66
2023/03/28 05:48:52;;;;;;;41.00;37.65;;;11.50;99.90;;;;;;5270010;28;20028;-65
2023/03/28 05:51:23;;;;;;;45.70;42.05;;;11.50;99.90;;;;;;5271825;28;20028;-65
2023/03/28 05:53:54;;;;;;;44.38;40.72;;;11.60;99.90;;;;;;5251987;28;20467;-66
2023/03/28 05:56:25;;;;;;;42.08;38.63;;;11.60;99.90;;;;;;5269860;28;20028;-66
2023/03/28 05:58:56;;;;;;;43.85;40.47;;;11.60;99.90;;;;;;5269762;28;20016;-65
2023/03/28 06:01:27;;;;;;;44.00;40.50;;;11.40;99.90;;;;;;5269519;28;20085;-65
2023/03/28 06:03:58;;;;;;;44.40;40.97;;;11.50;99.90;;;;;;5269499;28;20028;-64
2023/03/28 06:06:30;;;;;;;45.45;41.95;;;11.30;99.90;;;;;;5269590;28;20028;-66
2023/03/28 06:09:01;;;;;;;44.33;40.65;;;11.50;99.90;;;;;;5269462;28;20028;-65
2023/03/28 06:11:31;;;;;;;43.13;39.53;;;11.50;99.90;;;;;;5269339;28;20034;-66
2023/03/28 06:14:02;;;;;;;41.03;37.45;;;11.60;99.90;;;;;;5269269;28;20213;-64
2023/03/28 06:16:33;;;;;;;44.33;40.83;;;11.50;99.90;;;;;;5269333;28;20027;-66
2023/03/28 06:19:05;;;;;;;41.97;38.58;;;11.70;99.90;;;;;;5269356;28;20357;-63
2023/03/28 06:21:36;;;;;;;41.55;38.15;;;11.70;99.90;;;;;;5269387;28;20031;-64
2023/03/28 06:24:08;;;;;;;41.67;38.33;;;11.60;99.90;;;;;;5269080;28;20040;-66
2023/03/28 06:26:39;;;;;;;45.83;41.63;;;11.70;99.90;;;;;;5269249;28;20020;-66
2023/03/28 06:29:11;;;;;;;41.67;38.35;;;11.50;99.90;;;;;;5269221;28;20422;-64
2023/03/28 06:31:42;;;;;;;44.78;41.22;;;11.50;99.90;;;;;;5269216;28;20458;-66
2023/03/28 06:34:12;;;;;;;40.45;37.00;;;11.60;99.90;;;;;;5279914;28;20081;-66
2023/03/28 06:36:43;;;;;;;42.03;38.42;;;11.80;99.90;;;;;;5290189;28;20020;-66
2023/03/28 06:39:14;;;;;;;40.13;37.10;;;11.80;99.90;;;;;;5290009;28;20024;-63
2023/03/28 06:41:45;;;;;;;41.70;38.50;;;11.50;99.90;;;;;;5289964;28;20023;-66
2023/03/28 06:44:16;;;;;;;38.75;35.85;;;11.60;99.90;;;;;;5289882;28;20044;-63
2023/03/28 06:46:47;;;;;;;41.53;38.35;;;11.50;99.90;;;;;;5289869;28;20049;-65
2023/03/28 06:49:18;;;;;;;40.75;37.60;;;11.60;99.90;;;;;;5289783;28;20024;-65
2023/03/28 06:51:48;;;;;;;40.72;37.65;;;11.60;99.90;;;;;;5289714;28;20069;-65
2023/03/28 06:54:19;;;;;;;43.42;39.95;;;11.70;99.90;;;;;;5289743;28;20019;-66
2023/03/28 06:56:50;;;;;;;42.80;39.63;;;11.50;99.90;;;;;;5282460;28;20016;-67
2023/03/28 06:59:21;;;;;;;43.42;39.90;;;11.60;99.90;;;;;;5277165;28;20347;-67
2023/03/28 07:01:52;;;;;;;41.65;38.42;;;11.50;99.90;;;;;;5277115;28;20028;-65
2023/03/28 07:04:23;;;;;;;40.80;37.45;;;11.60;99.90;;;;;;5283770;28;20063;-66
2023/03/28 07:06:54;;;;;;;47.40;43.70;;;11.70;99.90;;;;;;5278462;28;20016;-63
2023/03/28 07:09:25;;;;;;;45.00;40.85;;;11.90;99.90;;;;;;5260165;28;20077;-65
2023/03/28 07:11:55;;;;;;;54.58;49.47;;;11.80;99.90;;;;;;5278366;28;20475;-63
2023/03/28 07:14:26;;;;;;;59.15;53.67;;;11.60;99.90;;;;;;5274692;28;20357;-65
2023/03/28 07:16:57;;;;;;;54.45;49.35;;;11.50;99.90;;;;;;5276504;28;20099;-66
2023/03/28 07:19:28;;;;;;;53.40;48.17;;;11.50;99.90;;;;;;5277214;28;20054;-64
2023/03/28 07:21:59;;;;;;;48.95;44.35;;;11.60;99.90;;;;;;5277911;28;20474;-63
2023/03/28 07:24:30;;;;;;;39.92;36.65;;;11.20;99.90;;;;;;5277601;28;20155;-66
2023/03/28 07:27:02;;;;;;;39.22;35.88;;;10.90;99.90;;;;;;5275919;28;20099;-66
2023/03/28 07:29:33;;;;;;;35.95;33.25;;;10.80;99.90;;;;;;5288480;28;20027;-65
2023/03/28 07:32:04;;;;;;;39.95;36.58;;;10.90;99.90;;;;;;5273272;28;20048;-65
2023/03/28 07:34:35;;;;;;;35.08;32.38;;;10.60;99.90;;;;;;5267967;28;20083;-62
2023/03/28 07:37:07;;;;;;;49.65;45.53;;;10.60;99.90;;;;;;5267909;28;20020;-66
2023/03/28 07:39:42;;;;;;;30.92;28.67;;;10.70;99.90;;;;;;5267959;28;20046;-65
2023/03/28 07:42:13;;;;;;;33.67;31.30;;;10.80;99.90;;;;;;5267874;28;20110;-66
2023/03/28 07:44:44;;;;;;;33.40;31.15;;;10.80;99.90;;;;;;5267229;28;20064;-65
2023/03/28 07:47:17;;;;;;;30.17;28.17;;;10.70;99.90;;;;;;5249518;28;20419;-65
2023/03/28 07:49:47;;;;;;;30.50;28.38;;;10.70;99.90;;;;;;5267836;28;20028;-66
2023/03/28 07:52:19;;;;;;;33.70;31.40;;;10.80;99.90;;;;;;5268017;28;20078;-65
2023/03/28 07:54:50;;;;;;;33.10;30.90;;;10.80;99.90;;;;;;5267989;28;20050;-66
2023/03/28 07:57:21;;;;;;;35.50;33.03;;;11.10;99.90;;;;;;5267854;28;20016;-66
2023/03/28 07:59:52;;;;;;;31.38;29.17;;;11.00;99.90;;;;;;5267946;28;20766;-66
2023/03/28 08:02:24;;;;;;;29.95;28.05;;;10.50;99.90;;;;;;5267570;28;20442;-65
2023/03/28 08:04:55;;;;;;;29.20;27.38;;;9.90;99.90;;;;;;5267710;28;20036;-66
2023/03/28 08:07:25;;;;;;;26.50;24.90;;;9.60;99.90;;;;;;5267784;28;20031;-65
2023/03/28 08:09:56;;;;;;;28.83;27.13;;;9.50;99.90;;;;;;5267744;28;20039;-66
2023/03/28 08:12:28;;;;;;;27.05;24.98;;;9.70;99.90;;;;;;5267626;28;20016;-65
2023/03/28 08:14:59;;;;;;;28.33;26.45;;;9.90;99.90;;;;;;5267700;28;20028;-65
2023/03/28 08:17:31;;;;;;;28.48;26.52;;;9.70;99.90;;;;;;5267626;28;20058;-64
2023/03/28 08:20:04;;;;;;;31.33;29.30;;;9.80;99.90;;;;;;5267526;28;20364;-66
2023/03/28 08:22:35;;;;;;;31.63;29.48;;;9.90;99.90;;;;;;5267405;28;20035;-66
2023/03/28 08:25:06;;;;;;;31.83;29.55;;;9.90;99.90;;;;;;5267566;28;20032;-65
2023/03/28 08:27:37;;;;;;;30.70;28.52;;;10.10;99.90;;;;;;5267451;28;20025;-65
2023/03/28 08:30:09;;;;;;;30.70;28.48;;;10.00;99.90;;;;;;5267277;28;20054;-65
2023/03/28 08:32:40;;;;;;;30.50;28.52;;;10.20;99.90;;;;;;5267444;28;20132;-65
2023/03/28 08:35:12;;;;;;;30.20;28.20;;;10.10;99.90;;;;;;5267421;28;20058;-64
2023/03/28 08:37:43;;;;;;;28.88;27.08;;;10.20;99.90;;;;;;5269929;28;20529;-66
2023/03/28 08:40:17;;;;;;;31.73;29.75;;;10.00;99.90;;;;;;5271148;28;20028;-66
2023/03/28 08:42:57;;;;;;;27.15;25.45;;;9.90;99.90;;;;;;5271148;28;20051;-66
2023/03/28 08:45:32;;;;;;;27.33;25.63;;;10.00;99.90;;;;;;5271169;28;20039;-66
2023/03/28 08:48:17;;;;;;;26.67;25.17;;;9.70;99.90;;;;;;5271345;28;20024;-65
2023/03/28 08:51:25;;;;;;;27.05;25.40;;;9.80;99.90;;;;;;5252849;28;20544;-66
2023/03/28 08:54:16;;;;;;;28.17;26.05;;;9.80;99.90;;;;;;5271099;28;20024;-66
2023/03/28 08:56:56;;;;;;;27.42;25.73;;;9.90;99.90;;;;;;5271012;28;20069;-65
2023/03/28 08:59:39;;;;;;;27.77;25.93;;;10.00;99.90;;;;;;5271005;28;20027;-66
2023/03/28 09:02:18;;;;;;;27.73;25.92;;;9.80;99.90;;;;;;5271014;28;20046;-66
2023/03/28 09:04:50;;;;;;;27.00;25.08;;;10.00;99.90;;;;;;5271166;28;20115;-65
2023/03/28 09:07:21;;;;;;;28.52;26.60;;;9.80;99.90;;;;;;5271053;28;20031;-66
2023/03/28 09:10:17;;;;;;;27.25;25.30;;;10.00;99.90;;;;;;5270944;28;20032;-66
2023/03/28 09:13:19;;;;;;;25.40;23.58;;;10.00;99.90;;;;;;5270781;28;20099;-66
2023/03/28 09:16:00;;;;;;;26.40;24.65;;;10.00;99.90;;;;;;5270833;28;20052;-63
2023/03/28 09:18:39;;;;;;;26.30;24.75;;;10.00;99.90;;;;;;5270574;28;20020;-65
2023/03/28 09:21:24;;;;;;;27.27;25.65;;;10.10;99.90;;;;;;5270618;28;20078;-65
2023/03/28 09:24:24;;;;;;;27.65;25.90;;;9.90;99.90;;;;;;5270311;28;20103;-62
2023/03/28 09:27:17;;;;;;;29.38;27.48;;;10.00;99.90;;;;;;5270561;28;20468;-62
2023/03/28 09:29:50;;;;;;;24.80;23.20;;;9.90;99.90;;;;;;5270287;28;20036;-64
2023/03/28 09:32:32;;;;;;;27.77;26.13;;;9.90;99.90;;;;;;5272217;28;20047;-65
2023/03/28 09:35:15;;;;;;;26.63;24.95;;;9.90;99.90;;;;;;5280580;28;20111;-65
2023/03/28 09:38:14;;;;;;;26.10;24.60;;;10.20;99.90;;;;;;5291304;28;20055;-66
2023/03/28 09:40:46;;;;;;;29.40;27.60;;;9.90;99.90;;;;;;5283373;28;20049;-66
2023/03/28 09:43:45;;;;;;;28.08;26.17;;;9.70;99.90;;;;;;5270002;28;20115;-66
2023/03/28 09:46:27;;;;;;;30.75;28.30;;;9.80;99.90;;;;;;5270033;28;20094;-62
2023/03/28 09:48:58;;;;;;;29.35;27.13;;;9.90;99.90;;;;;;5269389;28;20028;-65
2023/03/28 09:51:29;;;;;;;30.30;28.30;;;9.90;99.90;;;;;;5269852;28;20418;-66
2023/03/28 09:54:06;;;;;;;28.45;26.35;;;9.60;99.90;;;;;;5269855;28;20040;-64
2023/03/28 09:56:40;;;;;;;34.72;32.15;;;9.80;99.90;;;;;;5270707;28;20463;-62
2023/03/28 09:59:27;;;;;;;31.38;29.17;;;10.10;99.90;;;;;;5276974;28;20462;-63
2023/03/28 10:02:01;;;;;;;33.75;31.10;;;10.10;99.90;;;;;;5269530;28;20032;-65
2023/03/28 10:04:35;;;;;;;35.97;33.38;;;10.00;99.90;;;;;;5269540;28;20050;-66
2023/03/28 10:07:09;;;;;;;36.83;33.90;;;9.90;99.90;;;;;;5269642;28;20035;-66
2023/03/28 10:09:48;;;;;;;31.83;29.42;;;10.10;99.90;;;;;;5269417;28;20028;-66
2023/03/28 10:12:24;;;;;;;32.27;29.63;;;10.00;99.90;;;;;;5269487;28;20051;-61
2023/03/28 10:14:55;;;;;;;36.15;33.45;;;9.90;99.90;;;;;;5269411;28;20780;-61
2023/03/28 10:17:30;;;;;;;37.75;34.75;;;9.90;99.90;;;;;;5269344;28;20110;-69
2023/03/28 10:20:18;;;;;;;31.40;29.30;;;9.80;99.90;;;;;;5269353;28;20032;-63
2023/03/28 10:22:50;;;;;;;27.80;26.00;;;9.70;99.90;;;;;;5269198;28;20056;-61
2023/03/28 10:25:37;;;;;;;28.20;26.20;;;9.70;99.90;;;;;;5269388;28;20038;-66
2023/03/28 10:28:20;;;;;;;27.35;25.52;;;9.70;99.90;;;;;;5269150;28;20020;-63
2023/03/28 10:30:54;;;;;;;28.45;26.60;;;9.70;99.90;;;;;;5268877;28;20040;-62
2023/03/28 10:33:41;;;;;;;26.05;24.17;;;9.90;99.90;;;;;;5269051;28;20020;-61
2023/03/28 10:36:31;;;;;;;29.23;26.92;;;9.40;99.90;;;;;;5269083;28;20050;-61
2023/03/28 10:39:23;;;;;;;29.20;27.08;;;9.30;99.90;;;;;;5269085;28;20024;-63
2023/03/28 10:41:59;;;;;;;31.35;29.10;;;9.40;99.90;;;;;;5284259;28;20035;-64
2023/03/28 10:44:35;;;;;;;32.28;29.80;;;9.60;99.90;;;;;;5289869;28;20040;-65
2023/03/28 10:47:17;;;;;;;30.25;28.20;;;9.70;99.90;;;;;;5289973;28;20020;-61
2023/03/28 10:49:52;;;;;;;27.92;26.15;;;9.80;99.90;;;;;;5289770;28;20027;-61
2023/03/28 10:52:41;;;;;;;28.92;26.90;;;9.50;99.90;;;;;;5289819;28;20031;-61
2023/03/28 10:55:16;;;;;;;31.45;29.48;;;9.20;99.90;;;;;;5289550;28;20044;-61
2023/03/28 10:58:06;;;;;;;30.58;28.70;;;9.30;99.90;;;;;;5271556;28;20425;-64
2023/03/28 11:00:46;;;;;;;31.10;28.83;;;9.50;99.90;;;;;;5288710;28;20023;-65
2023/03/28 11:03:35;;;;;;;33.33;30.97;;;9.50;99.90;;;;;;5288844;28;20032;-65
2023/03/28 11:06:19;;;;;;;42.47;38.92;;;9.50;99.90;;;;;;5289404;28;20122;-65
2023/03/28 11:09:17;;;;;;;33.33;31.20;;;9.40;99.90;;;;;;5282661;28;20020;-64
2023/03/28 11:12:12;;;;;;;33.90;31.70;;;9.30;99.90;;;;;;5269957;28;20093;-62
2023/03/28 11:14:48;;;;;;;62.25;56.30;;;9.50;99.90;;;;;;5268375;28;20081;-63
2023/03/28 11:17:28;;;;;;;33.60;31.38;;;9.70;99.90;;;;;;5268194;28;20028;-62
2023/03/28 11:20:16;;;;;;;34.90;32.58;;;9.50;99.90;;;;;;5276162;28;20053;-63
2023/03/28 11:23:08;;;;;;;34.97;32.85;;;9.00;99.90;;;;;;5289077;28;20027;-64
2023/03/28 11:26:16;;;;;;;30.85;28.95;;;8.90;99.90;;;;;;5289140;28;20031;-65
2023/03/28 11:29:07;;;;;;;32.67;30.65;;;9.00;99.90;;;;;;5289156;28;20019;-62
2023/03/28 11:32:01;;;;;;;34.45;32.15;;;9.10;99.90;;;;;;5288892;28;20040;-65
2023/03/28 11:34:37;;;;;;;32.83;30.80;;;8.80;99.90;;;;;;5271380;28;20071;-65
2023/03/28 11:37:21;;;;;;;37.95;35.65;;;9.00;99.90;;;;;;5289275;28;20084;-65
2023/03/28 11:40:00;;;;;;;38.20;35.42;;;8.70;99.90;;;;;;5288891;28;20028;-65
2023/03/28 11:42:40;;;;;;;36.63;34.22;;;8.90;99.90;;;;;;5288870;28;20536;-65
2023/03/28 11:45:11;;;;;;;39.28;36.67;;;9.00;99.90;;;;;;5289036;28;20063;-65
2023/03/28 11:47:49;;;;;;;34.70;32.70;;;8.60;99.90;;;;;;5289119;28;20510;-66
2023/03/28 11:50:22;;;;;;;38.95;36.50;;;8.40;99.90;;;;;;5289129;28;20016;-63
2023/03/28 11:53:31;;;;;;;40.95;38.47;;;8.30;99.90;;;;;;5289003;28;20498;-66
2023/03/28 11:56:22;;;;;;;39.95;37.35;;;8.30;99.90;;;;;;5182888;28;20499;-66
2023/03/28 11:58:59;;;;;;;40.05;37.42;;;8.70;99.90;;;;;;5287394;28;20067;-66
2023/03/28 12:01:34;;;;;;;41.28;38.67;;;8.80;99.90;;;;;;5288731;28;20084;-65
2023/03/28 12:04:16;;;;;;;39.25;36.85;;;8.70;99.90;;;;;;5270367;28;20039;-66
2023/03/28 12:07:42;;;;;;;38.22;35.65;;;8.70;99.90;;;;;;5288509;28;20468;-63
2023/03/28 12:10:48;;;;;;;40.30;37.80;;;8.80;99.90;;;;;;5182590;28;20057;-67
2023/03/28 12:13:38;;;;;;;37.05;34.75;;;8.50;99.90;;;;;;5155706;28;20038;-67
2023/03/28 12:16:17;;;;;;;39.38;36.63;;;8.40;99.90;;;;;;5186864;28;20026;-66
2023/03/28 12:18:57;;;;;;;37.60;35.22;;;8.80;99.90;;;;;;5186742;28;20386;-66
2023/03/28 12:21:38;;;;;;;38.50;36.10;;;8.70;99.90;;;;;;5186615;28;20038;-67
2023/03/28 12:24:23;;;;;;;39.20;36.58;;;8.90;99.90;;;;;;5186411;28;20171;-63
2023/03/28 12:27:02;;;;;;;34.05;31.90;;;9.20;99.90;;;;;;5186246;28;20034;-63
2023/03/28 12:30:01;;;;;;;35.10;33.05;;;9.10;99.90;;;;;;5186525;28;20034;-65
2023/03/28 12:33:12;;;;;;;38.45;36.13;;;9.00;99.90;;;;;;5186150;28;20093;-66
2023/03/28 12:35:46;;;;;;;34.10;32.20;;;8.90;99.90;;;;;;5186587;28;20468;-66
2023/03/28 12:38:31;;;;;;;33.08;31.17;;;9.00;99.90;;;;;;5186454;28;20033;-66
2023/03/28 12:41:08;;;;;;;34.78;32.78;;;8.80;99.90;;;;;;5255524;28;20036;-65
2023/03/28 12:43:39;;;;;;;42.95;39.05;;;8.70;99.90;;;;;;5292253;28;20063;-66
2023/03/28 12:46:13;;;;;;;36.40;34.40;;;8.90;99.90;;;;;;5292272;28;20028;-65
2023/03/28 12:48:56;;;;;;;67.53;57.67;;;8.90;99.90;;;;;;5292284;28;20452;-67
2023/03/28 12:51:35;;;;;;;36.20;34.00;;;9.30;99.90;;;;;;5292413;28;20059;-64
2023/03/28 12:54:08;;;;;;;46.45;42.65;;;9.20;99.90;;;;;;5292429;28;20032;-66
2023/03/28 12:56:39;;;;;;;40.20;37.42;;;9.10;99.90;;;;;;5292115;28;20055;-67
2023/03/28 12:59:37;;;;;;;36.30;33.92;;;9.20;99.90;;;;;;5291769;28;20401;-67
2023/03/28 13:02:33;;;;;;;34.25;31.80;;;9.40;99.90;;;;;;5291988;28;20394;-66
2023/03/28 13:05:29;;;;;;;32.65;30.65;;;9.30;99.90;;;;;;5291987;28;20402;-64
2023/03/28 13:08:16;;;;;;;39.80;37.25;;;9.50;99.90;;;;;;5291806;28;20094;-67
2023/03/28 13:11:13;;;;;;;41.55;38.67;;;9.80;99.90;;;;;;5291872;28;20040;-68
2023/03/28 13:14:00;;;;;;;37.10;34.80;;;9.40;99.90;;;;;;5278441;28;20040;-67
2023/03/28 13:16:52;;;;;;;35.28;33.20;;;9.60;99.90;;;;;;5291887;28;20053;-67
2023/03/28 13:19:44;;;;;;;34.40;32.00;;;9.50;99.90;;;;;;5290803;28;20040;-67
2023/03/28 13:22:48;;;;;;;33.83;31.52;;;9.70;99.90;;;;;;5288232;28;20023;-66